STT114 OBBI-OEMA
Flight info
| Callsign | STT114 |
|---|---|
| Flight time | N/A |
| Altitude | 36000 |
| Route | NARMI N697 TAYMA DCT GAS G674 EMURI |
| Aircraft | A346/H-SDE2E3FGHIJ3J4J5M1RWXY/LB1D1 |
Departure
| Time | 2026-05-08 04:21 |
|---|---|
| Airport | Bahrain International Airport (OBBI) |
Arrival
| Time | N/A |
|---|---|
| Airport | Prince Mohammad Bin Abdulaziz Airport (OEMA) |
| Time | Latitude | Longitude | Altitude | Speed | Heading |
|---|---|---|---|---|---|
| 2026-05-08 03:49 | 26.27157 | 50.62504 | 27 ft | 0 kts | 288° |
| 2026-05-08 04:13 | 26.27158 | 50.62501 | 28 ft | 1 kts | 290° |
| 2026-05-08 04:14 | 26.27162 | 50.62492 | 28 ft | 2 kts | 307° |
| 2026-05-08 04:14 | 26.27182 | 50.62480 | 28 ft | 6 kts | 351° |
| 2026-05-08 04:14 | 26.27239 | 50.62493 | 28 ft | 10 kts | 26° |
| 2026-05-08 04:14 | 26.27290 | 50.62532 | 28 ft | 0 kts | 34° |
| 2026-05-08 04:15 | 26.27295 | 50.62535 | 28 ft | 2 kts | 34° |
| 2026-05-08 04:15 | 26.27303 | 50.62541 | 28 ft | 2 kts | 34° |
| 2026-05-08 04:15 | 26.27325 | 50.62559 | 28 ft | 6 kts | 39° |
| 2026-05-08 04:15 | 26.27322 | 50.62615 | 28 ft | 11 kts | 121° |
| 2026-05-08 04:16 | 26.27265 | 50.62716 | 28 ft | 18 kts | 123° |
| 2026-05-08 04:16 | 26.27191 | 50.62841 | 28 ft | 21 kts | 123° |
| 2026-05-08 04:16 | 26.27101 | 50.62982 | 28 ft | 23 kts | 124° |
| 2026-05-08 04:16 | 26.27010 | 50.63139 | 27 ft | 25 kts | 122° |
| 2026-05-08 04:17 | 26.26913 | 50.63308 | 27 ft | 27 kts | 122° |
| 2026-05-08 04:17 | 26.26809 | 50.63489 | 27 ft | 28 kts | 122° |
| 2026-05-08 04:17 | 26.26702 | 50.63674 | 28 ft | 29 kts | 123° |
| 2026-05-08 04:17 | 26.26591 | 50.63866 | 28 ft | 30 kts | 123° |
| 2026-05-08 04:18 | 26.26479 | 50.64061 | 27 ft | 30 kts | 123° |
| 2026-05-08 04:18 | 26.26362 | 50.64262 | 27 ft | 31 kts | 123° |
| 2026-05-08 04:18 | 26.26243 | 50.64468 | 27 ft | 31 kts | 123° |
| 2026-05-08 04:18 | 26.26124 | 50.64675 | 27 ft | 31 kts | 122° |
| 2026-05-08 04:19 | 26.26036 | 50.64829 | 28 ft | 18 kts | 122° |
| 2026-05-08 04:19 | 26.26037 | 50.64958 | 28 ft | 16 kts | 43° |
| 2026-05-08 04:19 | 26.26113 | 50.65005 | 30 ft | 11 kts | 8° |
| 2026-05-08 04:19 | 26.26172 | 50.64951 | 30 ft | 13 kts | 302° |
| 2026-05-08 04:20 | 26.26318 | 50.64697 | 27 ft | 71 kts | 303° |
| 2026-05-08 04:20 | 26.26697 | 50.64036 | 28 ft | 128 kts | 303° |
| 2026-05-08 04:20 | 26.27267 | 50.63035 | 35 ft | 175 kts | 303° |
| 2026-05-08 04:20 | 26.27964 | 50.61812 | 531 ft | 183 kts | 305° |
| 2026-05-08 04:21 | 26.28522 | 50.60516 | 1233 ft | 188 kts | 297° |
| 2026-05-08 04:21 | 26.29013 | 50.59141 | 1776 ft | 194 kts | 300° |
| 2026-05-08 04:21 | 26.29287 | 50.57573 | 1966 ft | 219 kts | 277° |
| 2026-05-08 04:21 | 26.29180 | 50.55800 | 2239 ft | 236 kts | 275° |
| 2026-05-08 04:22 | 26.29177 | 50.53926 | 2540 ft | 248 kts | 279° |
| 2026-05-08 04:22 | 26.29242 | 50.51942 | 2860 ft | 263 kts | 279° |
| 2026-05-08 04:22 | 26.29329 | 50.49865 | 3361 ft | 270 kts | 278° |
| 2026-05-08 04:22 | 26.29412 | 50.47757 | 3980 ft | 272 kts | 277° |